Погода Нуакшотна неделю

Трарза, Мавритания

17 - 23 июля
  • 17июля
    Сегодня
    +24°
    +29°
    Практически безоблачно
    ВремяПогодаТемператураВлажностьДавлениеВетер, м/сВероятность осадков
    00:00Практически безоблачно+26°C85 %760 мм5.0 м/с2 %
    03:00Облачно с прояснениями+25°C85 %759 мм5.5 м/с2 %
    06:00Небольшая облачность+25°C89 %759 мм5.2 м/с1 %
    09:00Облачно с прояснениями+26°C80 %760 мм5.6 м/с2 %
    12:00Облачно с прояснениями+29°C75 %760 мм5.1 м/с2 %
    15:00Практически безоблачно+28°C72 %759 мм4.8 м/с2 %
    18:00Небольшая облачность+28°C77 %758 мм5.8 м/с2 %
    21:00Небольшая облачность+26°C80 %759 мм5.5 м/с2 %
  • 18июля
    Четверг
    +24°
    +29°
    Ясно и безоблачно
    ВремяПогодаТемператураВлажностьДавлениеВетер, м/сВероятность осадков
    00:00Облачно с прояснениями+26°C83 %760 мм5.0 м/с2 %
    03:00Облачно с прояснениями+25°C85 %759 мм4.3 м/с2 %
    06:00Облачно с прояснениями+25°C87 %759 мм4.2 м/с2 %
    09:00Практически безоблачно+26°C80 %760 мм4.1 м/с2 %
    12:00Ясно и безоблачно+29°C74 %759 мм3.9 м/с2 %
    15:00Ясно и безоблачно+28°C73 %758 мм5.0 м/с2 %
    18:00Ясно и безоблачно+28°C78 %757 мм5.3 м/с2 %
    21:00Ясно и безоблачно+26°C84 %758 мм5.7 м/с2 %
  • 19июля
    Пятница
    +25°
    +30°
    Ясно и безоблачно
    ВремяПогодаТемператураВлажностьДавлениеВетер, м/сВероятность осадков
    00:00Пасмурно, сплошная облачность+25°C87 %760 мм3.9 м/с2 %
    03:00Практически безоблачно+25°C90 %759 мм2.5 м/с2 %
    06:00Ясно и безоблачно+25°C91 %759 мм3.1 м/с2 %
    09:00Ясно и безоблачно+26°C84 %760 мм4.5 м/с2 %
    12:00Ясно и безоблачно+30°C71 %760 мм5.0 м/с2 %
    15:00Ясно и безоблачно+28°C70 %759 мм6.4 м/с2 %
    18:00Ясно и безоблачно+29°C75 %758 мм6.2 м/с2 %
    21:00Ясно и безоблачно+27°C82 %759 мм5.6 м/с2 %
  • 20июля
    Суббота
    +24°
    +30°
    Ясно и безоблачно
    ВремяПогодаТемператураВлажностьДавлениеВетер, м/сВероятность осадков
    00:00Ясно и безоблачно+26°C86 %760 мм6.2 м/с2 %
    03:00Ясно и безоблачно+26°C82 %758 мм7.6 м/с2 %
    06:00Ясно и безоблачно+26°C88 %757 мм7.2 м/с2 %
    09:00Ясно и безоблачно+25°C82 %758 мм9.3 м/с2 %
    12:00Ясно и безоблачно+29°C76 %757 мм7.8 м/с2 %
    15:00Ясно и безоблачно+27°C76 %757 мм7.6 м/с2 %
    18:00Ясно и безоблачно+28°C80 %755 мм8.6 м/с2 %
    21:00Ясно и безоблачно+25°C85 %757 мм7.6 м/с2 %
  • 21июля
    Воскресенье
    +25°
    +30°
    Ясно и безоблачно
    ВремяПогодаТемператураВлажностьДавлениеВетер, м/сВероятность осадков
    00:00Практически безоблачно+26°C86 %757 мм6.7 м/с2 %
    03:00Практически безоблачно+25°C85 %757 мм7.5 м/с2 %
    06:00Облачно с прояснениями+26°C84 %757 мм7.8 м/с2 %
    09:00Практически безоблачно+27°C77 %758 мм9.1 м/с2 %
    12:00Ясно и безоблачно+30°C72 %758 мм9.0 м/с2 %
    15:00Ясно и безоблачно+29°C71 %757 мм8.0 м/с2 %
    18:00Ясно и безоблачно+29°C77 %756 мм8.3 м/с2 %
    21:00Ясно и безоблачно+26°C82 %758 мм7.7 м/с2 %
Мы используем cookies
Соглашаюсь